createdAt,value
2022-12-25T00:00:46.358Z,7.90
2022-12-25T00:01:48.135Z,7.90
2022-12-25T00:02:50.011Z,7.80
2022-12-25T00:03:52.837Z,7.90
2022-12-25T00:04:54.729Z,7.90
2022-12-25T00:07:12.539Z,7.90
2022-12-25T00:08:14.366Z,7.90
2022-12-25T00:09:16.126Z,7.90
2022-12-25T00:10:18.217Z,7.90
2022-12-25T00:11:21.316Z,7.90
2022-12-25T00:12:23.132Z,7.90
2022-12-25T00:13:25.166Z,7.90
2022-12-25T00:14:26.867Z,7.90
2022-12-25T00:15:29.061Z,7.90
2022-12-25T00:16:30.943Z,7.90
2022-12-25T00:17:32.785Z,7.90
2022-12-25T00:18:34.555Z,7.80
2022-12-25T00:19:36.301Z,7.80
2022-12-25T00:20:38.005Z,7.90
2022-12-25T00:21:39.779Z,7.80
2022-12-25T00:22:41.661Z,7.90
2022-12-25T00:23:43.821Z,7.90
2022-12-25T00:24:47.888Z,7.90
2022-12-25T00:25:49.664Z,7.80
2022-12-25T00:26:51.460Z,7.90
2022-12-25T00:27:53.207Z,7.90
2022-12-25T00:28:56.850Z,7.90
2022-12-25T00:29:58.663Z,7.90
2022-12-25T00:31:04.116Z,7.90
2022-12-25T00:32:06.106Z,7.90
2022-12-25T00:33:07.883Z,7.90
2022-12-25T00:34:09.609Z,7.90
2022-12-25T00:35:11.324Z,7.90
2022-12-25T00:36:15.871Z,7.90
2022-12-25T00:37:17.613Z,7.90
2022-12-25T00:38:19.347Z,7.90
2022-12-25T00:39:21.234Z,7.90
2022-12-25T00:40:22.973Z,7.90
2022-12-25T00:41:43.254Z,7.90
2022-12-25T00:42:45.048Z,7.90
2022-12-25T00:43:46.776Z,7.90
2022-12-25T00:44:50.111Z,7.90
2022-12-25T00:45:56.601Z,7.90
2022-12-25T00:46:58.446Z,7.80
2022-12-25T00:48:00.211Z,7.80
2022-12-25T00:49:02.725Z,7.80
2022-12-25T00:50:05.067Z,7.80
2022-12-25T00:51:10.754Z,7.80
2022-12-25T00:52:12.490Z,7.80
2022-12-25T00:53:14.235Z,7.80
2022-12-25T00:54:16.073Z,7.80
2022-12-25T00:55:17.833Z,7.80
2022-12-25T00:56:19.603Z,7.70
2022-12-25T00:57:21.420Z,7.70
2022-12-25T00:58:26.805Z,7.60
2022-12-25T00:59:32.512Z,7.60
2022-12-25T01:00:34.331Z,7.50
2022-12-25T01:01:37.279Z,7.50
2022-12-25T01:02:39.112Z,7.50
2022-12-25T01:03:40.938Z,7.40
2022-12-25T01:04:42.680Z,7.50
2022-12-25T01:05:53.748Z,7.40
2022-12-25T01:06:55.541Z,7.40
2022-12-25T01:07:57.249Z,7.50
2022-12-25T01:09:17.800Z,7.50
2022-12-25T01:10:22.468Z,7.50
2022-12-25T01:11:24.266Z,7.50
2022-12-25T01:12:25.980Z,7.60
2022-12-25T01:13:29.406Z,7.60
2022-12-25T01:14:31.141Z,7.60
2022-12-25T01:15:33.054Z,7.60
2022-12-25T01:16:35.210Z,7.60
2022-12-25T01:17:37.049Z,7.60
2022-12-25T01:18:38.930Z,7.50
2022-12-25T01:19:40.696Z,7.50
2022-12-25T01:20:42.732Z,7.50
2022-12-25T01:21:44.581Z,7.50
2022-12-25T01:22:46.403Z,7.50
2022-12-25T01:23:49.526Z,7.50
2022-12-25T01:24:51.311Z,7.50
2022-12-25T01:25:53.027Z,7.50
2022-12-25T01:26:54.805Z,7.40
2022-12-25T01:27:56.821Z,7.40
2022-12-25T01:28:58.563Z,7.40
2022-12-25T01:30:00.491Z,7.40
2022-12-25T01:31:02.602Z,7.30
2022-12-25T01:32:05.009Z,7.30
2022-12-25T01:33:07.067Z,7.20
2022-12-25T01:34:08.788Z,7.10
2022-12-25T01:35:10.600Z,7.00
2022-12-25T01:36:23.862Z,7.00
2022-12-25T01:37:27.138Z,6.90
2022-12-25T01:38:28.975Z,6.90
2022-12-25T01:39:31.076Z,6.80
2022-12-25T01:40:34.964Z,6.80
2022-12-25T01:41:36.725Z,6.80
2022-12-25T01:42:38.496Z,6.80
2022-12-25T01:44:08.961Z,6.70
2022-12-25T01:45:35.525Z,6.70
2022-12-25T01:46:37.336Z,6.70
2022-12-25T01:47:39.178Z,6.60
2022-12-25T01:48:41.096Z,6.60
2022-12-25T01:49:46.339Z,6.60
2022-12-25T01:50:58.723Z,6.60
2022-12-25T01:52:12.053Z,6.60
2022-12-25T01:53:14.100Z,6.60
2022-12-25T01:54:50.495Z,6.50
2022-12-25T01:55:58.437Z,6.60
2022-12-25T01:57:02.915Z,6.50
2022-12-25T01:58:05.102Z,6.50
2022-12-25T01:59:08.912Z,6.40
2022-12-25T02:00:12.358Z,6.40
2022-12-25T02:01:14.579Z,6.40
2022-12-25T02:02:16.519Z,6.40
2022-12-25T02:03:20.083Z,6.40
2022-12-25T02:04:38.832Z,6.40
2022-12-25T02:05:41.056Z,6.40
2022-12-25T02:06:42.869Z,6.40
2022-12-25T02:07:46.322Z,6.30
2022-12-25T02:08:48.589Z,6.30
2022-12-25T02:09:51.950Z,6.30
2022-12-25T02:10:53.933Z,6.30
2022-12-25T02:11:58.466Z,6.30
2022-12-25T02:13:01.075Z,6.30
2022-12-25T02:14:03.040Z,6.30
2022-12-25T02:15:11.251Z,6.30
2022-12-25T02:16:15.816Z,6.20
2022-12-25T02:17:41.017Z,6.20
2022-12-25T02:18:51.545Z,6.20
2022-12-25T02:20:30.131Z,6.20
2022-12-25T02:21:46.546Z,6.20
2022-12-25T02:23:19.220Z,6.10
2022-12-25T02:24:39.108Z,6.10
2022-12-25T02:25:47.042Z,6.00
2022-12-25T02:26:51.776Z,6.00
2022-12-25T02:28:34.720Z,5.90
2022-12-25T02:30:03.664Z,5.90
2022-12-25T02:31:13.488Z,5.90
2022-12-25T02:32:38.469Z,5.90
2022-12-25T02:34:04.699Z,5.80
2022-12-25T02:35:17.962Z,5.80
2022-12-25T02:36:24.144Z,5.80
2022-12-25T02:37:38.160Z,5.80
2022-12-25T02:39:04.861Z,5.80
2022-12-25T02:40:30.618Z,5.80
2022-12-25T02:41:37.252Z,5.80
2022-12-25T02:43:06.605Z,5.80
2022-12-25T02:44:46.780Z,5.70
2022-12-25T02:46:21.857Z,5.60
2022-12-25T02:47:43.382Z,5.60
2022-12-25T02:49:13.563Z,5.50
2022-12-25T02:50:34.819Z,5.50
2022-12-25T02:51:59.512Z,5.50
2022-12-25T02:53:22.333Z,5.50
2022-12-25T02:54:47.227Z,5.50
2022-12-25T02:56:09.287Z,5.40
2022-12-25T02:57:33.495Z,5.40
2022-12-25T02:58:57.969Z,5.40
2022-12-25T03:00:20.523Z,5.40
2022-12-25T03:01:45.759Z,5.40
2022-12-25T03:03:07.131Z,5.50
2022-12-25T03:04:33.502Z,5.40
2022-12-25T03:05:58.451Z,5.40
2022-12-25T03:07:11.409Z,5.40
2022-12-25T03:08:21.661Z,5.30
2022-12-25T03:09:45.933Z,5.30
2022-12-25T03:11:14.431Z,5.20
2022-12-25T03:12:24.724Z,5.20
2022-12-25T03:13:32.983Z,5.20
2022-12-25T03:14:53.540Z,5.10
2022-12-25T03:16:14.293Z,5.10
2022-12-25T03:17:16.194Z,5.10
2022-12-25T03:18:24.275Z,5.00
2022-12-25T03:19:51.301Z,5.00
2022-12-25T03:21:13.646Z,5.00
2022-12-25T03:22:52.525Z,5.00
2022-12-25T03:24:17.604Z,5.00
2022-12-25T03:25:38.602Z,5.00
2022-12-25T03:26:55.680Z,5.10
2022-12-25T03:27:58.791Z,5.10
2022-12-25T03:29:00.526Z,5.10
2022-12-25T03:30:34.748Z,5.10
2022-12-25T03:31:53.557Z,5.10
2022-12-25T03:33:18.029Z,5.20
2022-12-25T03:35:07.460Z,5.20
2022-12-25T03:36:31.541Z,5.20
2022-12-25T03:38:19.815Z,5.10
2022-12-25T03:39:54.975Z,5.10
2022-12-25T03:41:41.830Z,5.10
2022-12-25T03:43:08.677Z,5.10
2022-12-25T03:44:52.688Z,5.10
2022-12-25T03:46:20.749Z,5.00
2022-12-25T03:47:57.729Z,4.90
2022-12-25T03:49:25.906Z,4.90
2022-12-25T03:50:52.100Z,4.80
2022-12-25T03:52:15.320Z,4.70
2022-12-25T03:53:42.925Z,4.70
2022-12-25T03:55:07.069Z,4.70
2022-12-25T03:56:28.963Z,4.60
2022-12-25T03:57:53.975Z,4.70
2022-12-25T03:59:23.143Z,4.60
2022-12-25T04:00:44.546Z,4.60
2022-12-25T04:02:05.271Z,4.60
2022-12-25T04:03:25.785Z,4.60
2022-12-25T04:04:46.022Z,4.60
2022-12-25T04:06:06.481Z,4.60
2022-12-25T04:07:26.915Z,4.60
2022-12-25T04:08:47.359Z,4.60
2022-12-25T04:10:08.010Z,4.60
2022-12-25T04:11:28.425Z,4.50
2022-12-25T04:12:48.794Z,4.50
2022-12-25T04:14:09.245Z,4.40
2022-12-25T04:15:29.757Z,4.40
2022-12-25T04:16:49.994Z,4.40
2022-12-25T04:18:12.868Z,4.40
2022-12-25T04:19:33.418Z,4.30
2022-12-25T04:20:53.897Z,4.30
2022-12-25T04:22:14.406Z,4.30
2022-12-25T04:23:34.827Z,4.30
2022-12-25T04:24:55.269Z,4.30
2022-12-25T04:26:32.557Z,4.30
2022-12-25T04:27:57.215Z,4.20
2022-12-25T04:29:17.541Z,4.20
2022-12-25T04:30:37.943Z,4.20
2022-12-25T04:31:58.318Z,4.20
2022-12-25T04:33:19.007Z,4.20
2022-12-25T04:34:39.571Z,4.10
2022-12-25T04:36:00.271Z,4.10
2022-12-25T04:37:02.040Z,4.10
2022-12-25T04:38:03.863Z,4.10
2022-12-25T04:39:05.697Z,4.10
2022-12-25T04:40:08.201Z,4.10
2022-12-25T04:41:12.498Z,4.10
2022-12-25T04:42:14.261Z,4.10
2022-12-25T04:43:16.061Z,4.10
2022-12-25T04:44:17.824Z,4.10
2022-12-25T04:45:19.796Z,4.10
2022-12-25T04:46:21.582Z,4.10
2022-12-25T04:47:23.328Z,4.10
2022-12-25T04:48:26.562Z,4.10
2022-12-25T04:49:28.496Z,4.10
2022-12-25T04:50:30.228Z,4.10
2022-12-25T04:51:32.029Z,4.10
2022-12-25T04:52:37.729Z,4.00
2022-12-25T04:53:39.518Z,4.00
2022-12-25T04:54:41.354Z,4.00
2022-12-25T04:55:43.150Z,3.90
2022-12-25T04:56:45.952Z,3.90
2022-12-25T04:57:48.006Z,3.80
2022-12-25T04:58:50.076Z,3.80
2022-12-25T04:59:51.791Z,3.80
2022-12-25T05:00:53.492Z,3.80
2022-12-25T05:01:55.401Z,3.80
2022-12-25T05:02:58.243Z,3.80
2022-12-25T05:04:00.224Z,3.80
2022-12-25T05:05:02.135Z,3.70
2022-12-25T05:06:04.590Z,3.70
2022-12-25T05:07:06.313Z,3.70
2022-12-25T05:08:08.333Z,3.70
2022-12-25T05:09:10.452Z,3.70
2022-12-25T05:10:12.289Z,3.70
2022-12-25T05:11:15.615Z,3.70
2022-12-25T05:12:17.382Z,3.60
2022-12-25T05:13:19.192Z,3.60
2022-12-25T05:14:20.943Z,3.60
2022-12-25T05:15:22.832Z,3.60
2022-12-25T05:16:25.245Z,3.70
2022-12-25T05:17:27.136Z,3.60
2022-12-25T05:18:28.852Z,3.60
2022-12-25T05:19:30.596Z,3.60
2022-12-25T05:20:39.603Z,3.60
2022-12-25T05:21:41.833Z,3.60
2022-12-25T05:22:43.573Z,3.50
2022-12-25T05:23:51.252Z,3.60
2022-12-25T05:24:53.019Z,3.60
2022-12-25T05:25:54.729Z,3.60
2022-12-25T05:26:56.519Z,3.60
2022-12-25T05:27:58.262Z,3.60
2022-12-25T05:29:00.184Z,3.60
2022-12-25T05:30:01.991Z,3.60
2022-12-25T05:31:03.837Z,3.60
2022-12-25T05:32:05.807Z,3.60
2022-12-25T05:33:07.599Z,3.60
2022-12-25T05:34:09.364Z,3.60
2022-12-25T05:35:11.169Z,3.60
2022-12-25T05:36:13.447Z,3.60
2022-12-25T05:37:15.151Z,3.60
2022-12-25T05:38:16.891Z,3.60
2022-12-25T05:39:18.755Z,3.60
2022-12-25T05:40:20.544Z,3.60
2022-12-25T05:41:22.314Z,3.60
2022-12-25T05:42:24.074Z,3.50
2022-12-25T05:43:26.258Z,3.50
2022-12-25T05:44:28.027Z,3.40
2022-12-25T05:45:31.032Z,3.30
2022-12-25T05:46:32.786Z,3.30
2022-12-25T05:47:34.547Z,3.30
2022-12-25T05:48:37.627Z,3.30
2022-12-25T05:49:39.344Z,3.30
2022-12-25T05:50:41.151Z,3.30
2022-12-25T05:51:42.894Z,3.30
2022-12-25T05:52:44.649Z,3.30
2022-12-25T05:53:46.423Z,3.30
2022-12-25T05:54:48.202Z,3.30
2022-12-25T05:55:50.034Z,3.30
2022-12-25T05:56:51.906Z,3.30
2022-12-25T05:57:53.634Z,3.30
2022-12-25T05:58:55.630Z,3.30
2022-12-25T05:59:57.521Z,3.20
2022-12-25T06:01:00.034Z,3.20
2022-12-25T06:02:01.938Z,3.20
2022-12-25T06:03:04.517Z,3.20
2022-12-25T06:04:12.211Z,3.20
2022-12-25T06:05:14.613Z,3.20
2022-12-25T06:06:16.378Z,3.20
2022-12-25T06:07:18.118Z,3.10
2022-12-25T06:08:20.389Z,3.10
2022-12-25T06:09:22.138Z,3.10
2022-12-25T06:10:24.373Z,3.10
2022-12-25T06:11:26.064Z,3.10
2022-12-25T06:12:27.803Z,3.10
2022-12-25T06:13:29.546Z,3.00
2022-12-25T06:14:31.318Z,3.10
2022-12-25T06:15:33.727Z,3.10
2022-12-25T06:16:38.234Z,3.10
2022-12-25T06:17:40.325Z,3.10
2022-12-25T06:18:46.466Z,3.10
2022-12-25T06:19:48.198Z,3.10
2022-12-25T06:20:49.948Z,3.20
2022-12-25T06:21:55.381Z,3.20
2022-12-25T06:22:57.164Z,3.20
2022-12-25T06:24:01.957Z,3.20
2022-12-25T06:25:03.883Z,3.20
2022-12-25T06:26:08.033Z,3.20
2022-12-25T06:27:09.783Z,3.20
2022-12-25T06:28:11.566Z,3.20
2022-12-25T06:29:13.314Z,3.20
2022-12-25T06:30:15.166Z,3.10
2022-12-25T06:31:19.714Z,3.20
2022-12-25T06:32:21.607Z,3.20
2022-12-25T06:33:23.342Z,3.20
2022-12-25T06:34:25.286Z,3.20
2022-12-25T06:35:27.225Z,3.20
2022-12-25T06:36:29.494Z,3.20
2022-12-25T06:37:31.868Z,3.20
2022-12-25T06:38:33.576Z,3.20
2022-12-25T06:39:35.345Z,3.20
2022-12-25T06:40:37.273Z,3.20
2022-12-25T06:41:39.142Z,3.20
2022-12-25T06:42:40.971Z,3.20
2022-12-25T06:43:42.745Z,3.20
2022-12-25T06:44:44.737Z,3.20
2022-12-25T06:45:47.783Z,3.20
2022-12-25T06:46:49.673Z,3.20
2022-12-25T06:47:51.478Z,3.20
2022-12-25T06:48:53.323Z,3.20
2022-12-25T06:49:55.106Z,3.20
2022-12-25T06:50:56.839Z,3.20
2022-12-25T06:51:58.580Z,3.20
2022-12-25T06:53:00.339Z,3.20
2022-12-25T06:54:05.975Z,3.30
2022-12-25T06:55:08.045Z,3.20
2022-12-25T06:56:15.958Z,3.20
2022-12-25T06:57:18.972Z,3.20
2022-12-25T06:58:20.829Z,3.20
2022-12-25T06:59:22.618Z,3.20
2022-12-25T07:00:24.466Z,3.20
2022-12-25T07:01:26.304Z,3.20
2022-12-25T07:02:28.503Z,3.20
2022-12-25T07:03:30.831Z,3.20
2022-12-25T07:04:41.854Z,3.30
2022-12-25T07:05:44.884Z,3.20
2022-12-25T07:06:46.733Z,3.20
2022-12-25T07:07:48.454Z,3.20
2022-12-25T07:08:50.302Z,3.20
2022-12-25T07:09:52.073Z,3.20
2022-12-25T07:10:54.986Z,3.10
2022-12-25T07:12:23.159Z,3.10
2022-12-25T07:13:26.210Z,3.10
2022-12-25T07:14:28.158Z,3.10
2022-12-25T07:15:29.967Z,3.20
2022-12-25T07:16:31.843Z,3.10
2022-12-25T07:17:35.225Z,3.10
2022-12-25T07:18:37.521Z,3.20
2022-12-25T07:19:44.719Z,3.10
2022-12-25T07:20:47.022Z,3.10
2022-12-25T07:21:48.799Z,3.10
2022-12-25T07:22:50.638Z,3.10
2022-12-25T07:23:52.434Z,3.10
2022-12-25T07:24:54.197Z,3.10
2022-12-25T07:25:57.351Z,3.10
2022-12-25T07:26:59.068Z,3.10
2022-12-25T07:28:00.996Z,3.10
2022-12-25T07:29:02.827Z,3.10
2022-12-25T07:30:05.009Z,3.10
2022-12-25T07:31:15.326Z,3.10
2022-12-25T07:32:17.192Z,3.10
2022-12-25T07:33:19.181Z,3.10
2022-12-25T07:34:22.515Z,3.10
2022-12-25T07:35:24.373Z,3.20
2022-12-25T07:36:26.279Z,3.20
2022-12-25T07:37:27.982Z,3.30
2022-12-25T07:38:29.869Z,3.30
2022-12-25T07:39:31.814Z,3.30
2022-12-25T07:40:33.609Z,3.30
2022-12-25T07:41:36.192Z,3.30
2022-12-25T07:42:37.916Z,3.30
2022-12-25T07:43:40.099Z,3.30
2022-12-25T07:44:41.918Z,3.30
2022-12-25T07:45:43.709Z,3.20
2022-12-25T07:46:45.916Z,3.20
2022-12-25T07:47:47.656Z,3.20
2022-12-25T07:48:49.828Z,3.20
2022-12-25T07:49:51.527Z,3.20
2022-12-25T07:51:01.372Z,3.20
2022-12-25T07:52:03.193Z,3.20
2022-12-25T07:53:04.972Z,3.20
2022-12-25T07:54:06.762Z,3.20
2022-12-25T07:55:09.162Z,3.20
2022-12-25T07:56:16.599Z,3.30
2022-12-25T07:57:18.377Z,3.30
2022-12-25T07:58:23.395Z,3.30
2022-12-25T07:59:25.621Z,3.30
2022-12-25T08:00:31.213Z,3.30
2022-12-25T08:01:33.385Z,3.30
2022-12-25T08:02:35.494Z,3.30
2022-12-25T08:03:37.848Z,3.30
2022-12-25T08:04:39.759Z,3.30
2022-12-25T08:05:41.558Z,3.30
2022-12-25T08:06:43.321Z,3.30
2022-12-25T08:07:45.089Z,3.30
2022-12-25T08:08:47.254Z,3.30
2022-12-25T08:09:49.054Z,3.30
2022-12-25T08:10:50.842Z,3.30
2022-12-25T08:11:52.583Z,3.30
2022-12-25T08:12:56.577Z,3.30
2022-12-25T08:13:58.452Z,3.30
2022-12-25T08:15:00.228Z,3.30
2022-12-25T08:16:05.273Z,3.30
2022-12-25T08:17:07.423Z,3.30
2022-12-25T08:18:09.580Z,3.30
2022-12-25T08:19:12.731Z,3.30
2022-12-25T08:20:14.575Z,3.30
2022-12-25T08:21:16.547Z,3.30
2022-12-25T08:22:18.335Z,3.30
2022-12-25T08:23:20.205Z,3.30
2022-12-25T08:24:22.465Z,3.30
2022-12-25T08:25:24.186Z,3.40
2022-12-25T08:26:25.980Z,3.30
2022-12-25T08:27:28.131Z,3.30
2022-12-25T08:28:30.263Z,3.30
2022-12-25T08:29:33.203Z,3.40
2022-12-25T08:30:34.979Z,3.40
2022-12-25T08:31:42.415Z,3.40
2022-12-25T08:32:47.641Z,3.40
2022-12-25T08:33:52.696Z,3.40
2022-12-25T08:34:54.445Z,3.40
2022-12-25T08:36:02.241Z,3.40
2022-12-25T08:37:04.065Z,3.50
2022-12-25T08:38:05.796Z,3.40
2022-12-25T08:39:08.305Z,3.50
2022-12-25T08:40:10.580Z,3.50
2022-12-25T08:41:13.256Z,3.60
2022-12-25T08:42:15.365Z,3.60
2022-12-25T08:43:17.206Z,3.60
2022-12-25T08:44:19.111Z,3.60
2022-12-25T08:45:20.871Z,3.70
2022-12-25T08:46:22.739Z,3.70
2022-12-25T08:47:24.570Z,3.70
2022-12-25T08:48:26.393Z,3.70
2022-12-25T08:49:29.097Z,3.70
2022-12-25T08:50:31.042Z,3.70
2022-12-25T08:51:32.848Z,3.80
2022-12-25T08:52:34.739Z,3.80
2022-12-25T08:53:36.516Z,3.80
2022-12-25T08:54:38.302Z,3.80
2022-12-25T08:55:40.159Z,3.80
2022-12-25T08:56:41.924Z,3.80
2022-12-25T08:57:43.876Z,3.90
2022-12-25T08:58:46.493Z,3.90
2022-12-25T08:59:48.275Z,3.90
2022-12-25T09:00:50.019Z,3.90
2022-12-25T09:01:51.884Z,4.00
2022-12-25T09:02:53.866Z,4.00
2022-12-25T09:03:55.726Z,4.00
2022-12-25T09:04:57.669Z,4.00
2022-12-25T09:06:17.607Z,4.10
2022-12-25T09:07:19.363Z,4.10
2022-12-25T09:08:21.934Z,4.10
2022-12-25T09:09:30.027Z,4.20
2022-12-25T09:10:34.842Z,4.20
2022-12-25T09:11:36.581Z,4.20
2022-12-25T09:12:38.390Z,4.30
2022-12-25T09:13:40.449Z,4.30
2022-12-25T09:14:42.201Z,4.30
2022-12-25T09:15:44.049Z,4.40
2022-12-25T09:16:45.808Z,4.40
2022-12-25T09:17:47.690Z,4.30
2022-12-25T09:18:49.926Z,4.40
2022-12-25T09:19:51.676Z,4.40
2022-12-25T09:21:05.075Z,4.40
2022-12-25T09:22:06.819Z,4.40
2022-12-25T09:23:13.566Z,4.40
2022-12-25T09:24:15.970Z,4.40
2022-12-25T09:25:17.855Z,4.40
2022-12-25T09:26:19.894Z,4.40
2022-12-25T09:27:21.664Z,4.40
2022-12-25T09:28:23.404Z,4.50
2022-12-25T09:29:25.194Z,4.50
2022-12-25T09:30:27.007Z,4.50
2022-12-25T09:31:29.001Z,4.50
2022-12-25T09:32:30.974Z,4.60
2022-12-25T09:33:32.911Z,4.60
2022-12-25T09:34:35.080Z,4.60
2022-12-25T09:35:36.839Z,4.70
2022-12-25T09:36:38.638Z,4.70
2022-12-25T09:37:41.488Z,4.70
2022-12-25T09:38:43.356Z,4.70
2022-12-25T09:39:46.492Z,4.80
2022-12-25T09:40:57.340Z,4.80
2022-12-25T09:42:04.619Z,4.80
2022-12-25T09:43:06.374Z,4.80
2022-12-25T09:44:18.450Z,4.80
2022-12-25T09:45:29.989Z,4.90
2022-12-25T09:46:40.833Z,4.90
2022-12-25T09:47:45.714Z,4.90
2022-12-25T09:49:29.080Z,5.00
2022-12-25T09:50:33.668Z,5.00
2022-12-25T09:51:39.617Z,5.00
2022-12-25T09:52:44.099Z,5.10
2022-12-25T09:53:51.775Z,5.10
2022-12-25T09:54:56.920Z,5.20
2022-12-25T09:56:09.149Z,5.20
2022-12-25T09:57:15.116Z,5.20
2022-12-25T09:58:16.861Z,5.20
2022-12-25T09:59:25.697Z,5.30
2022-12-25T10:00:35.997Z,5.30
2022-12-25T10:01:55.049Z,5.30
2022-12-25T10:03:21.626Z,5.30
2022-12-25T10:04:41.071Z,5.40
2022-12-25T10:06:18.670Z,5.40
2022-12-25T10:07:28.792Z,5.40
2022-12-25T10:08:40.746Z,5.50
2022-12-25T10:10:16.447Z,5.50
2022-12-25T10:11:50.355Z,5.60
2022-12-25T10:13:23.004Z,5.60
2022-12-25T10:14:37.328Z,5.70
2022-12-25T10:16:08.672Z,5.70
2022-12-25T10:17:26.597Z,5.80
2022-12-25T10:18:37.312Z,5.90
2022-12-25T10:19:41.913Z,6.00
2022-12-25T10:20:58.983Z,6.10
2022-12-25T10:22:12.633Z,6.10
2022-12-25T10:23:22.596Z,6.10
2022-12-25T10:24:36.187Z,6.20
2022-12-25T10:25:39.962Z,6.20
2022-12-25T10:26:41.976Z,6.20
2022-12-25T10:27:43.994Z,6.20
2022-12-25T10:29:13.876Z,6.20
2022-12-25T10:30:26.608Z,6.20
2022-12-25T10:31:33.602Z,6.20
2022-12-25T10:32:35.337Z,6.20
2022-12-25T10:33:37.526Z,6.10
2022-12-25T10:34:41.727Z,6.10
2022-12-25T10:35:43.622Z,6.10
2022-12-25T10:36:46.535Z,6.10
2022-12-25T10:38:14.756Z,6.10
2022-12-25T10:39:22.333Z,6.10
2022-12-25T10:40:27.909Z,6.10
2022-12-25T10:41:41.535Z,6.10
2022-12-25T10:42:46.297Z,6.20
2022-12-25T10:43:54.722Z,6.20
2022-12-25T10:45:00.297Z,6.30
2022-12-25T10:46:02.063Z,6.30
2022-12-25T10:47:04.975Z,6.40
2022-12-25T10:48:08.076Z,6.40
2022-12-25T10:49:17.775Z,6.40
2022-12-25T10:50:24.612Z,6.50
2022-12-25T10:51:31.814Z,6.40
2022-12-25T10:52:34.070Z,6.40
2022-12-25T10:53:41.429Z,6.40
2022-12-25T10:54:43.659Z,6.40
2022-12-25T10:55:55.694Z,6.40
2022-12-25T10:57:09.316Z,6.40
2022-12-25T10:58:20.085Z,6.40
2022-12-25T10:59:21.968Z,6.40
2022-12-25T11:00:26.973Z,6.50
2022-12-25T11:01:28.973Z,6.50
2022-12-25T11:02:40.179Z,6.60
2022-12-25T11:03:46.808Z,6.60
2022-12-25T11:04:49.339Z,6.70
2022-12-25T11:05:51.691Z,6.80
2022-12-25T11:07:13.929Z,6.90
2022-12-25T11:08:24.176Z,7.00
2022-12-25T11:09:26.076Z,7.10
2022-12-25T11:10:38.130Z,7.20
2022-12-25T11:11:41.710Z,7.30
2022-12-25T11:12:45.451Z,7.30
2022-12-25T11:13:54.168Z,7.40
2022-12-25T11:15:01.397Z,7.50
2022-12-25T11:16:10.602Z,7.50
2022-12-25T11:17:21.751Z,7.50
2022-12-25T11:18:29.583Z,7.50
2022-12-25T11:19:32.867Z,7.50
2022-12-25T11:20:36.453Z,7.50
2022-12-25T11:21:38.172Z,7.50
2022-12-25T11:22:45.689Z,7.50
2022-12-25T11:23:50.488Z,7.50
2022-12-25T11:24:53.044Z,7.60
2022-12-25T11:25:58.876Z,7.60
2022-12-25T11:27:04.653Z,7.60
2022-12-25T11:28:07.153Z,7.60
2022-12-25T11:29:35.190Z,7.60
2022-12-25T11:30:38.087Z,7.60
2022-12-25T11:31:43.184Z,7.60
2022-12-25T11:32:55.457Z,7.50
2022-12-25T11:34:24.686Z,7.50
2022-12-25T11:35:32.213Z,7.50
2022-12-25T11:36:48.680Z,7.50
2022-12-25T11:37:53.153Z,7.50
2022-12-25T11:38:55.144Z,7.50
2022-12-25T11:39:57.319Z,7.50
2022-12-25T11:41:03.347Z,7.50
2022-12-25T11:42:46.342Z,7.50
2022-12-25T11:43:56.492Z,7.40
2022-12-25T11:45:11.762Z,7.40
2022-12-25T11:46:28.300Z,7.40
2022-12-25T11:47:44.760Z,7.50
2022-12-25T11:48:58.137Z,7.50
2022-12-25T11:50:04.994Z,7.50
2022-12-25T11:51:09.663Z,7.50
2022-12-25T11:52:14.177Z,7.50
2022-12-25T11:53:42.315Z,7.50
2022-12-25T11:54:56.913Z,7.50
2022-12-25T11:56:05.984Z,7.50
2022-12-25T11:57:11.478Z,7.50
2022-12-25T11:58:22.119Z,7.60
2022-12-25T11:59:35.019Z,7.60
2022-12-25T12:00:37.118Z,7.60
2022-12-25T12:01:48.081Z,7.60
2022-12-25T12:03:27.106Z,7.60
2022-12-25T12:04:42.748Z,7.60
2022-12-25T12:05:51.801Z,7.60
2022-12-25T12:07:13.337Z,7.60
2022-12-25T12:08:15.599Z,7.60
2022-12-25T12:09:44.614Z,7.60
2022-12-25T12:10:49.352Z,7.60
2022-12-25T12:12:06.425Z,7.60
2022-12-25T12:13:27.763Z,7.60
2022-12-25T12:14:43.487Z,7.60
2022-12-25T12:15:47.870Z,7.60
2022-12-25T12:16:49.800Z,7.70
2022-12-25T12:17:51.771Z,7.70
2022-12-25T12:18:53.628Z,7.70
2022-12-25T12:19:55.394Z,7.70
2022-12-25T12:21:01.690Z,7.70
2022-12-25T12:22:05.074Z,7.70
2022-12-25T12:23:15.607Z,7.70
2022-12-25T12:24:20.870Z,7.70
2022-12-25T12:25:23.046Z,7.80
2022-12-25T12:26:31.416Z,7.80
2022-12-25T12:27:39.420Z,7.80
2022-12-25T12:28:47.095Z,7.90
2022-12-25T12:29:58.051Z,7.80
2022-12-25T12:31:04.059Z,7.90
2022-12-25T12:32:20.342Z,7.90
2022-12-25T12:33:31.937Z,7.90
2022-12-25T12:34:45.935Z,7.90
2022-12-25T12:35:48.914Z,8.00
2022-12-25T12:36:54.497Z,8.00
2022-12-25T12:38:06.659Z,8.10
2022-12-25T12:39:23.472Z,8.10
2022-12-25T12:40:35.018Z,8.10
2022-12-25T12:41:49.559Z,8.10
2022-12-25T12:42:52.340Z,8.10
2022-12-25T12:43:59.471Z,8.10
2022-12-25T12:45:45.298Z,8.20
2022-12-25T12:46:55.518Z,8.20
2022-12-25T12:47:57.549Z,8.30
2022-12-25T12:49:24.964Z,8.30
2022-12-25T12:50:37.102Z,8.30
2022-12-25T12:51:39.145Z,8.30
2022-12-25T12:52:42.651Z,8.30
2022-12-25T12:53:44.470Z,8.30
2022-12-25T12:55:04.330Z,8.30
2022-12-25T12:56:18.623Z,8.40
2022-12-25T12:57:29.766Z,8.40
2022-12-25T12:58:34.997Z,8.40
2022-12-25T12:59:46.878Z,8.50
2022-12-25T13:01:16.518Z,8.40
2022-12-25T13:02:43.542Z,8.50
2022-12-25T13:04:18.551Z,8.50
2022-12-25T13:05:30.514Z,8.50
2022-12-25T13:07:11.208Z,8.50
2022-12-25T13:08:34.487Z,8.50
2022-12-25T13:10:01.236Z,8.50
2022-12-25T13:11:22.613Z,8.50
2022-12-25T13:12:24.993Z,8.50
2022-12-25T13:13:46.688Z,8.60
2022-12-25T13:14:49.771Z,8.60
2022-12-25T13:15:53.258Z,8.60
2022-12-25T13:16:55.211Z,8.70
2022-12-25T13:18:02.610Z,8.70
2022-12-25T13:19:07.920Z,8.70
2022-12-25T13:20:21.324Z,8.70
2022-12-25T13:21:28.647Z,8.80
2022-12-25T13:22:35.518Z,8.80
2022-12-25T13:23:37.816Z,8.80
2022-12-25T13:24:39.945Z,8.80
2022-12-25T13:25:41.746Z,8.80
2022-12-25T13:26:43.643Z,8.80
2022-12-25T13:27:45.430Z,8.80
2022-12-25T13:28:47.522Z,8.80
2022-12-25T13:29:49.407Z,8.80
2022-12-25T13:30:51.178Z,8.80
2022-12-25T13:31:53.415Z,8.80
2022-12-25T13:32:56.993Z,8.80
2022-12-25T13:34:04.237Z,8.90
2022-12-25T13:35:13.360Z,8.90
2022-12-25T13:36:15.505Z,8.90
2022-12-25T13:37:19.913Z,8.80
2022-12-25T13:38:23.312Z,8.80
2022-12-25T13:39:25.178Z,8.80
2022-12-25T13:40:28.288Z,8.80
2022-12-25T13:42:05.425Z,8.80
2022-12-25T13:43:11.382Z,8.80
2022-12-25T13:44:24.440Z,8.80
2022-12-25T13:45:29.399Z,8.90
2022-12-25T13:46:31.271Z,8.90
2022-12-25T13:47:43.213Z,8.90
2022-12-25T13:48:45.005Z,8.80
2022-12-25T13:49:48.057Z,8.80
2022-12-25T13:50:58.926Z,8.80
2022-12-25T13:52:14.459Z,8.80
2022-12-25T13:53:17.792Z,8.80
2022-12-25T13:54:19.940Z,8.80
2022-12-25T13:55:26.750Z,8.80
2022-12-25T13:56:28.626Z,8.80
2022-12-25T13:57:36.806Z,8.80
2022-12-25T13:58:39.473Z,8.80
2022-12-25T13:59:44.599Z,8.80
2022-12-25T14:00:46.347Z,8.80
2022-12-25T14:01:49.970Z,8.80
2022-12-25T14:02:52.094Z,8.70
2022-12-25T14:03:54.608Z,8.70
2022-12-25T14:04:56.833Z,8.70
2022-12-25T14:06:00.806Z,8.70
2022-12-25T14:07:11.817Z,8.70
2022-12-25T14:08:20.713Z,8.70
2022-12-25T14:09:23.032Z,8.70
2022-12-25T14:10:27.912Z,8.70
2022-12-25T14:11:30.982Z,8.70
2022-12-25T14:12:33.337Z,8.70
2022-12-25T14:13:40.229Z,8.70
2022-12-25T14:14:42.983Z,8.60
2022-12-25T14:15:48.033Z,8.60
2022-12-25T14:16:53.464Z,8.60
2022-12-25T14:17:55.529Z,8.60
2022-12-25T14:19:01.003Z,8.60
2022-12-25T14:20:08.326Z,8.50
2022-12-25T14:21:21.428Z,8.50
2022-12-25T14:22:23.945Z,8.50
2022-12-25T14:23:26.284Z,8.50
2022-12-25T14:24:29.987Z,8.50
2022-12-25T14:25:40.649Z,8.50
2022-12-25T14:26:43.019Z,8.50
2022-12-25T14:27:50.358Z,8.40
2022-12-25T14:29:20.448Z,8.40
2022-12-25T14:30:29.748Z,8.40
2022-12-25T14:31:32.722Z,8.40
2022-12-25T14:32:43.166Z,8.30
2022-12-25T14:33:45.939Z,8.30
2022-12-25T14:34:50.957Z,8.30
2022-12-25T14:35:53.337Z,8.30
2022-12-25T14:36:55.460Z,8.20
2022-12-25T14:38:02.476Z,8.20
2022-12-25T14:39:06.979Z,8.20
2022-12-25T14:40:26.775Z,8.20
2022-12-25T14:41:41.759Z,8.20
2022-12-25T14:42:54.104Z,8.10
2022-12-25T14:43:55.988Z,8.10
2022-12-25T14:45:30.550Z,8.10
2022-12-25T14:46:34.076Z,8.10
2022-12-25T14:47:51.532Z,8.10
2022-12-25T14:49:06.199Z,8.00
2022-12-25T14:50:33.917Z,8.00
2022-12-25T14:51:39.065Z,8.10
2022-12-25T14:52:45.050Z,8.10
2022-12-25T14:53:50.708Z,8.00
2022-12-25T14:55:00.043Z,8.00
2022-12-25T14:56:02.593Z,8.00
2022-12-25T14:57:04.491Z,8.00
2022-12-25T14:58:08.143Z,8.00
2022-12-25T14:59:18.723Z,8.00
2022-12-25T15:00:22.346Z,8.00
2022-12-25T15:01:39.835Z,8.00
2022-12-25T15:02:45.847Z,8.00
2022-12-25T15:03:49.285Z,8.00
2022-12-25T15:04:51.111Z,8.00